createdAt,value
2019-02-27T00:00:01.654Z,1019.12
2019-02-27T00:05:01.371Z,1019.20
2019-02-27T00:10:05.929Z,1019.13
2019-02-27T00:15:02.205Z,1019.14
2019-02-27T00:20:04.060Z,1019.02
2019-02-27T00:25:03.431Z,1018.97
2019-02-27T00:30:04.627Z,1018.85
2019-02-27T00:35:06.325Z,1018.81
2019-02-27T00:40:05.309Z,1018.72
2019-02-27T00:45:06.735Z,1018.71
2019-02-27T00:50:05.663Z,1018.66
2019-02-27T00:55:04.313Z,1018.68
2019-02-27T01:00:06.260Z,1018.71
2019-02-27T01:05:01.532Z,1018.69
2019-02-27T01:10:02.391Z,1018.62
2019-02-27T01:15:01.377Z,1018.61
2019-02-27T01:20:01.709Z,1018.56
2019-02-27T01:25:01.661Z,1018.52
2019-02-27T01:30:01.388Z,1018.50
2019-02-27T01:35:01.521Z,1018.43
2019-02-27T01:40:02.625Z,1018.37
2019-02-27T01:45:01.720Z,1018.36
2019-02-27T01:50:01.747Z,1018.22
2019-02-27T01:55:01.355Z,1018.10
2019-02-27T02:00:02.225Z,1018.05
2019-02-27T02:05:01.546Z,1017.93
2019-02-27T02:10:01.382Z,1017.99
2019-02-27T02:15:01.387Z,1017.84
2019-02-27T02:20:01.644Z,1017.69
2019-02-27T02:25:01.472Z,1017.69
2019-02-27T02:30:01.496Z,1017.59
2019-02-27T02:35:02.189Z,1017.61
2019-02-27T02:40:01.415Z,1017.48
2019-02-27T02:45:01.409Z,1017.44
2019-02-27T02:50:01.406Z,1017.36
2019-02-27T02:55:01.562Z,1017.25
2019-02-27T03:00:02.522Z,1017.22
2019-02-27T03:05:02.262Z,1017.16
2019-02-27T03:10:07.420Z,1017.13
2019-02-27T03:15:01.457Z,1017.11
2019-02-27T03:20:01.461Z,1017.01
2019-02-27T03:25:04.055Z,1016.93
2019-02-27T03:30:01.437Z,1016.95
2019-02-27T03:35:01.769Z,1016.89
2019-02-27T03:40:01.822Z,1016.89
2019-02-27T03:45:01.395Z,1016.84
2019-02-27T03:50:01.366Z,1016.89
2019-02-27T03:55:02.307Z,1016.81
2019-02-27T04:00:01.741Z,1016.82
2019-02-27T04:05:05.897Z,1016.81
2019-02-27T04:10:01.518Z,1016.78
2019-02-27T04:15:01.540Z,1016.77
2019-02-27T04:20:01.474Z,1016.79
2019-02-27T04:25:02.242Z,1016.71
2019-02-27T04:30:01.439Z,1016.70
2019-02-27T04:35:05.903Z,1016.73
2019-02-27T04:40:01.410Z,1016.68
2019-02-27T04:45:01.451Z,1016.65
2019-02-27T04:50:01.779Z,1016.63
2019-02-27T04:55:02.406Z,1016.65
2019-02-27T05:00:01.543Z,1016.59
2019-02-27T05:05:02.118Z,1016.56
2019-02-27T05:10:01.542Z,1016.50
2019-02-27T05:15:04.079Z,1016.51
2019-02-27T05:20:01.437Z,1016.43
2019-02-27T05:25:01.626Z,1016.44
2019-02-27T05:30:02.200Z,1016.50
2019-02-27T05:35:02.196Z,1016.52
2019-02-27T05:40:01.406Z,1016.57
2019-02-27T05:45:01.428Z,1016.39
2019-02-27T05:50:01.608Z,1016.40
2019-02-27T05:55:05.951Z,1016.41
2019-02-27T06:00:02.619Z,1016.49
2019-02-27T06:05:01.433Z,1016.41
2019-02-27T06:10:01.647Z,1016.44
2019-02-27T06:15:01.468Z,1016.38
2019-02-27T06:20:05.389Z,1016.36
2019-02-27T06:25:01.810Z,1016.32
2019-02-27T06:30:01.862Z,1016.36
2019-02-27T06:35:01.441Z,1016.35
2019-02-27T06:40:04.758Z,1016.22
2019-02-27T06:45:01.436Z,1016.24
2019-02-27T06:50:01.927Z,1016.15
2019-02-27T06:55:01.342Z,1016.21
2019-02-27T07:00:02.986Z,1016.23
2019-02-27T07:05:01.519Z,1016.23
2019-02-27T07:10:01.526Z,1016.17
2019-02-27T07:15:01.394Z,1016.19
2019-02-27T07:20:02.017Z,1016.08
2019-02-27T07:25:06.415Z,1016.15
2019-02-27T07:30:01.877Z,1016.14
2019-02-27T07:35:01.537Z,1016.10
2019-02-27T07:40:01.886Z,1016.12
2019-02-27T07:45:01.441Z,1016.15
2019-02-27T07:50:02.741Z,1016.19
2019-02-27T07:55:01.675Z,1016.21
2019-02-27T08:00:01.465Z,1016.13
2019-02-27T08:05:01.769Z,1016.10
2019-02-27T08:10:04.559Z,1016.13
2019-02-27T08:15:01.548Z,1016.10
2019-02-27T08:20:01.867Z,1016.11
2019-02-27T08:25:01.464Z,1016.15
2019-02-27T08:30:01.914Z,1016.14
2019-02-27T08:35:01.549Z,1016.11
2019-02-27T08:40:01.768Z,1016.15
2019-02-27T08:45:01.481Z,1016.00
2019-02-27T08:50:01.544Z,1016.05
2019-02-27T08:55:05.413Z,1016.02
2019-02-27T09:00:01.459Z,1015.97
2019-02-27T09:05:01.585Z,1015.90
2019-02-27T09:10:01.481Z,1015.89
2019-02-27T09:15:01.445Z,1015.86
2019-02-27T09:20:02.255Z,1015.82
2019-02-27T09:25:02.492Z,1015.83
2019-02-27T09:30:02.772Z,1015.72
2019-02-27T09:35:01.641Z,1015.80
2019-02-27T09:40:04.807Z,1015.77
2019-02-27T09:45:01.455Z,1015.65
2019-02-27T09:50:03.435Z,1015.67
2019-02-27T09:55:02.084Z,1015.59
2019-02-27T10:00:02.963Z,1015.50
2019-02-27T10:05:03.086Z,1015.49
2019-02-27T10:10:01.466Z,1015.45
2019-02-27T10:15:01.476Z,1015.47
2019-02-27T10:20:02.749Z,1015.44
2019-02-27T10:25:02.625Z,1015.40
2019-02-27T10:30:01.620Z,1015.35
2019-02-27T10:35:01.655Z,1015.38
2019-02-27T10:40:01.809Z,1015.34
2019-02-27T10:45:01.547Z,1015.31
2019-02-27T10:50:02.869Z,1015.29
2019-02-27T10:55:01.541Z,1015.20
2019-02-27T11:00:01.923Z,1015.16
2019-02-27T11:05:02.066Z,1015.08
2019-02-27T11:10:01.582Z,1015.04
2019-02-27T11:15:01.556Z,1014.99
2019-02-27T11:20:01.567Z,1014.93
2019-02-27T11:25:01.542Z,1014.78
2019-02-27T11:30:02.888Z,1014.74
2019-02-27T11:35:01.663Z,1014.60
2019-02-27T11:40:01.614Z,1014.52
2019-02-27T11:45:01.758Z,1014.40
2019-02-27T11:50:01.559Z,1014.27
2019-02-27T11:55:02.720Z,1014.21
2019-02-27T12:00:01.648Z,1014.12
2019-02-27T12:05:01.702Z,1014.00
2019-02-27T12:10:01.478Z,1014.05
2019-02-27T12:15:02.147Z,1013.97
2019-02-27T12:20:02.063Z,1013.96
2019-02-27T12:25:01.519Z,1013.93
2019-02-27T12:30:02.850Z,1013.84
2019-02-27T12:35:03.074Z,1013.69
2019-02-27T12:40:01.553Z,1013.65
2019-02-27T12:45:01.555Z,1013.46
2019-02-27T12:50:01.516Z,1013.44
2019-02-27T12:55:01.882Z,1013.42
2019-02-27T13:00:01.808Z,1013.21
2019-02-27T13:05:02.288Z,1013.16
2019-02-27T13:10:01.532Z,1013.12
2019-02-27T13:15:01.563Z,1013.10
2019-02-27T13:20:03.099Z,1012.93
2019-02-27T13:25:01.644Z,1012.86
2019-02-27T13:30:08.718Z,1012.80
2019-02-27T13:35:01.695Z,1012.73
2019-02-27T13:40:01.725Z,1012.64
2019-02-27T13:45:01.508Z,1012.52
2019-02-27T13:50:02.022Z,1012.39
2019-02-27T13:55:01.538Z,1012.27
2019-02-27T14:00:02.477Z,1012.15
2019-02-27T14:05:01.481Z,1012.04
2019-02-27T14:10:01.629Z,1012.02
2019-02-27T14:15:01.773Z,1011.95
2019-02-27T14:20:02.006Z,1011.90
2019-02-27T14:25:01.534Z,1011.78
2019-02-27T14:30:03.922Z,1011.75
2019-02-27T14:35:01.690Z,1011.69
2019-02-27T14:40:04.408Z,1011.66
2019-02-27T14:45:05.364Z,1011.65
2019-02-27T14:50:02.571Z,1011.54
2019-02-27T14:55:03.430Z,1011.50
2019-02-27T15:00:02.470Z,1011.44
2019-02-27T15:05:06.062Z,1011.39
2019-02-27T15:10:01.964Z,1011.38
2019-02-27T15:15:01.704Z,1011.27
2019-02-27T15:20:04.807Z,1011.25
2019-02-27T15:25:01.582Z,1011.13
2019-02-27T15:30:01.543Z,1011.10
2019-02-27T15:35:01.517Z,1011.01
2019-02-27T15:40:01.566Z,1010.90
2019-02-27T15:45:01.672Z,1010.90
2019-02-27T15:50:02.744Z,1010.83
2019-02-27T15:55:01.496Z,1010.71
2019-02-27T16:00:02.190Z,1010.76
2019-02-27T16:05:01.941Z,1010.66
2019-02-27T16:10:06.657Z,1010.55
2019-02-27T16:15:01.543Z,1010.53
2019-02-27T16:20:02.054Z,1010.47
2019-02-27T16:25:02.498Z,1010.44
2019-02-27T16:30:01.590Z,1010.31
2019-02-27T16:35:04.326Z,1010.28
2019-02-27T16:40:01.692Z,1010.23
2019-02-27T16:45:01.486Z,1010.18
2019-02-27T16:50:01.516Z,1010.14
2019-02-27T16:55:02.517Z,1010.18
2019-02-27T17:00:01.958Z,1010.07
2019-02-27T17:05:01.645Z,1010.12
2019-02-27T17:10:01.588Z,1010.15
2019-02-27T17:15:02.162Z,1010.07
2019-02-27T17:20:01.853Z,1009.92
2019-02-27T17:25:01.590Z,1009.88
2019-02-27T17:30:01.812Z,1009.85
2019-02-27T17:35:01.978Z,1009.77
2019-02-27T17:40:02.239Z,1009.82
2019-02-27T17:45:01.504Z,1009.81
2019-02-27T17:50:01.977Z,1009.72
2019-02-27T17:55:03.466Z,1009.73
2019-02-27T18:00:01.753Z,1009.68
2019-02-27T18:05:01.538Z,1009.65
2019-02-27T18:10:02.708Z,1009.59
2019-02-27T18:15:01.521Z,1009.61
2019-02-27T18:20:01.926Z,1009.54
2019-02-27T18:25:04.709Z,1009.48
2019-02-27T18:30:02.951Z,1009.48
2019-02-27T18:35:02.183Z,1009.43
2019-02-27T18:40:01.547Z,1009.37
2019-02-27T18:45:01.545Z,1009.31
2019-02-27T18:50:01.514Z,1009.30
2019-02-27T18:55:02.237Z,1009.30
2019-02-27T19:00:02.648Z,1009.27
2019-02-27T19:05:01.775Z,1009.26
2019-02-27T19:10:03.795Z,1009.29
2019-02-27T19:15:01.714Z,1009.32
2019-02-27T19:20:01.560Z,1009.19
2019-02-27T19:25:01.907Z,1009.13
2019-02-27T19:30:06.364Z,1009.10
2019-02-27T19:35:02.373Z,1009.04
2019-02-27T19:40:02.106Z,1008.98
2019-02-27T19:45:04.218Z,1008.95
2019-02-27T19:50:01.872Z,1008.92
2019-02-27T19:55:01.606Z,1008.95
2019-02-27T20:00:01.514Z,1008.93
2019-02-27T20:05:02.126Z,1008.90
2019-02-27T20:10:01.511Z,1008.87
2019-02-27T20:15:01.653Z,1008.76
2019-02-27T20:20:04.171Z,1008.76
2019-02-27T20:25:01.833Z,1008.76
2019-02-27T20:30:01.689Z,1008.75
2019-02-27T20:35:01.701Z,1008.66
2019-02-27T20:40:01.743Z,1008.62
2019-02-27T20:45:01.680Z,1008.64
2019-02-27T20:50:01.554Z,1008.70
2019-02-27T20:55:01.706Z,1008.66
2019-02-27T21:00:02.835Z,1008.62
2019-02-27T21:05:01.598Z,1008.59
2019-02-27T21:10:01.605Z,1008.61
2019-02-27T21:15:01.565Z,1008.68
2019-02-27T21:20:02.331Z,1008.71
2019-02-27T21:25:01.536Z,1008.73
2019-02-27T21:30:01.563Z,1008.68
2019-02-27T21:35:01.550Z,1008.62
2019-02-27T21:40:03.241Z,1008.63
2019-02-27T21:45:03.660Z,1008.62
2019-02-27T21:50:03.642Z,1008.62
2019-02-27T21:55:01.827Z,1008.60
2019-02-27T22:00:01.601Z,1008.64
2019-02-27T22:05:01.907Z,1008.62
2019-02-27T22:10:01.565Z,1008.53
2019-02-27T22:15:01.549Z,1008.46
2019-02-27T22:20:01.607Z,1008.48
2019-02-27T22:25:01.943Z,1008.36
2019-02-27T22:30:01.567Z,1008.35
2019-02-27T22:35:02.875Z,1008.33
2019-02-27T22:40:06.465Z,1008.21
2019-02-27T22:45:04.153Z,1008.25
2019-02-27T22:50:05.891Z,1008.18
2019-02-27T22:55:01.539Z,1008.16
2019-02-27T23:00:02.079Z,1008.19
2019-02-27T23:05:04.951Z,1008.13
2019-02-27T23:10:01.970Z,1008.14
2019-02-27T23:15:01.876Z,1008.14
2019-02-27T23:20:01.562Z,1008.22
2019-02-27T23:25:01.747Z,1008.17
2019-02-27T23:30:01.770Z,1008.13
2019-02-27T23:35:01.609Z,1008.04
2019-02-27T23:40:01.591Z,1008.00
2019-02-27T23:45:01.621Z,1007.95
2019-02-27T23:50:02.203Z,1007.86
2019-02-27T23:55:01.552Z,1007.81
